Time;durP1;ratioP1;P1;durP2;ratioP2;P2;SDS_P1;SDS_P2;PMS_P1;PMS_P2;Temp;Humidity;BMP_temperature;BMP_pressure;BME280_temperature;BME280_humidity;BME280_pressure;Samples;Min_cycle;Max_cycle;Signal;HPM_P1;HPM_P2
2022/04/14 00:01:48;;;;;;;18.40;12.50;;;12.40;99.90;;;;;;4991479;28;20074;-90
2022/04/14 00:04:14;;;;;;;19.75;13.40;;;12.40;99.90;;;;;;4975839;28;20092;-90
2022/04/14 00:06:39;;;;;;;18.88;12.45;;;12.40;99.90;;;;;;4975656;28;20042;-90
2022/04/14 00:09:05;;;;;;;16.98;12.10;;;12.40;99.90;;;;;;4991941;28;20133;-90
2022/04/14 00:11:31;;;;;;;19.23;11.88;;;12.30;99.90;;;;;;4975206;28;20137;-90
2022/04/14 00:13:56;;;;;;;16.88;11.90;;;12.40;99.90;;;;;;4975841;28;20078;-90
2022/04/14 00:16:22;;;;;;;16.25;12.00;;;12.30;99.90;;;;;;4991823;28;20129;-90
2022/04/14 00:18:48;;;;;;;18.13;13.38;;;12.40;99.90;;;;;;4991613;28;20566;-90
2022/04/14 00:21:14;;;;;;;16.95;12.15;;;12.40;99.90;;;;;;4991476;28;20043;-89
2022/04/14 00:23:39;;;;;;;19.15;11.75;;;12.40;99.90;;;;;;4991716;28;20041;-90
2022/04/14 00:26:05;;;;;;;18.02;11.98;;;12.40;99.90;;;;;;4992014;28;20038;-90
2022/04/14 00:28:31;;;;;;;16.38;11.95;;;12.40;99.90;;;;;;4975313;28;20092;-90
2022/04/14 00:30:59;;;;;;;16.92;11.85;;;12.40;99.90;;;;;;4991282;28;20062;-89
2022/04/14 00:33:26;;;;;;;20.70;12.70;;;12.40;99.90;;;;;;4975414;28;20038;-90
2022/04/14 00:35:52;;;;;;;21.20;12.73;;;12.40;99.90;;;;;;4991558;28;20046;-90
2022/04/14 00:38:18;;;;;;;19.70;13.10;;;12.40;99.90;;;;;;4991405;28;20097;-89
2022/04/14 00:40:43;;;;;;;18.60;13.32;;;12.40;99.90;;;;;;4990806;28;20043;-89
2022/04/14 00:43:09;;;;;;;18.02;11.90;;;12.40;99.90;;;;;;4993446;28;20100;-89
2022/04/14 00:45:34;;;;;;;20.15;13.10;;;12.40;99.90;;;;;;4988846;28;20050;-89
2022/04/14 00:48:00;;;;;;;19.88;14.48;;;12.40;99.90;;;;;;4992599;28;20038;-90
2022/04/14 00:50:26;;;;;;;18.63;13.52;;;12.40;99.90;;;;;;4992461;28;20046;-90
2022/04/14 00:52:54;;;;;;;22.23;14.43;;;12.40;99.90;;;;;;5000899;28;20092;-90
2022/04/14 00:55:20;;;;;;;19.70;12.75;;;12.40;99.90;;;;;;4991883;28;20097;-90
2022/04/14 00:57:45;;;;;;;19.58;13.05;;;12.40;99.90;;;;;;4975209;28;20050;-90
2022/04/14 01:00:12;;;;;;;21.73;14.38;;;12.40;99.90;;;;;;4990309;28;20042;-91
2022/04/14 01:02:37;;;;;;;19.90;13.70;;;12.40;99.90;;;;;;4975008;28;20034;-90
2022/04/14 01:05:04;;;;;;;21.77;14.07;;;12.40;99.90;;;;;;4991080;28;20626;-90
2022/04/14 01:07:30;;;;;;;18.35;13.15;;;12.40;99.90;;;;;;4991365;28;20538;-90
2022/04/14 01:09:56;;;;;;;20.85;15.40;;;12.40;99.90;;;;;;4990739;28;20509;-90
2022/04/14 01:12:23;;;;;;;19.67;13.85;;;12.30;99.90;;;;;;4991044;28;20120;-90
2022/04/14 01:14:48;;;;;;;21.17;14.02;;;12.30;99.90;;;;;;4991255;28;20133;-90
2022/04/14 01:17:14;;;;;;;23.30;16.85;;;12.30;99.90;;;;;;4975036;28;20129;-90
2022/04/14 01:19:40;;;;;;;25.48;16.90;;;12.30;99.90;;;;;;4975320;28;20483;-90
2022/04/14 01:22:18;;;;;;;21.60;14.85;;;12.30;99.90;;;;;;4974464;28;20491;-91
2022/04/14 01:24:44;;;;;;;21.67;16.35;;;12.30;99.90;;;;;;4991078;28;20046;-90
2022/04/14 01:27:10;;;;;;;21.73;14.60;;;12.30;99.90;;;;;;4991083;28;20034;-90
2022/04/14 01:29:35;;;;;;;20.35;15.05;;;12.30;99.90;;;;;;4974584;28;20049;-90
2022/04/14 01:32:04;;;;;;;22.95;15.68;;;12.30;99.90;;;;;;4990486;28;20125;-90
2022/04/14 01:34:30;;;;;;;21.85;15.13;;;12.30;99.90;;;;;;4990970;28;20045;-90
2022/04/14 01:37:00;;;;;;;23.17;16.30;;;12.30;99.90;;;;;;4990982;28;20522;-91
2022/04/14 01:39:30;;;;;;;23.98;15.90;;;12.20;99.90;;;;;;4974678;28;20045;-90
2022/04/14 01:41:55;;;;;;;21.73;14.63;;;12.20;99.90;;;;;;4990216;28;20089;-90
2022/04/14 01:44:21;;;;;;;20.90;15.13;;;12.20;99.90;;;;;;4991014;28;20066;-90
2022/04/14 01:46:47;;;;;;;22.90;16.80;;;12.20;99.90;;;;;;4990779;28;20039;-90
2022/04/14 01:49:12;;;;;;;21.45;16.40;;;12.20;99.90;;;;;;4990840;28;20050;-90
2022/04/14 01:51:39;;;;;;;19.45;15.40;;;12.20;99.90;;;;;;4990439;28;20043;-90
2022/04/14 01:54:05;;;;;;;19.88;14.75;;;12.20;99.90;;;;;;4974499;28;20043;-90
2022/04/14 01:56:31;;;;;;;22.70;17.05;;;12.10;99.90;;;;;;4974685;28;20372;-90
2022/04/14 01:58:57;;;;;;;21.92;16.35;;;12.10;99.90;;;;;;4974390;28;20598;-91
2022/04/14 02:01:23;;;;;;;25.08;17.13;;;12.10;99.90;;;;;;4974189;28;20199;-90
2022/04/14 02:03:49;;;;;;;22.27;16.48;;;12.10;99.90;;;;;;4974364;28;20038;-91
2022/04/14 02:06:15;;;;;;;25.73;18.67;;;12.10;99.90;;;;;;4990958;28;20046;-90
2022/04/14 02:08:42;;;;;;;24.65;16.52;;;12.10;99.90;;;;;;4990850;28;20034;-91
2022/04/14 02:11:08;;;;;;;23.85;17.00;;;12.10;99.90;;;;;;4990274;28;20100;-90
2022/04/14 02:13:34;;;;;;;21.35;16.25;;;12.00;99.90;;;;;;4992233;28;20038;-90
2022/04/14 02:16:00;;;;;;;20.35;16.83;;;12.00;99.90;;;;;;4977640;28;20169;-91
2022/04/14 02:18:26;;;;;;;23.10;19.27;;;12.00;99.90;;;;;;4977550;28;20042;-90
2022/04/14 02:20:52;;;;;;;24.92;19.20;;;12.10;99.90;;;;;;4993530;28;20050;-90
2022/04/14 02:23:18;;;;;;;24.65;16.70;;;12.00;99.90;;;;;;4978052;28;20410;-90
2022/04/14 02:25:44;;;;;;;23.48;17.70;;;12.00;99.90;;;;;;4977922;28;20434;-90
2022/04/14 02:28:10;;;;;;;22.77;18.13;;;11.90;99.90;;;;;;4977418;28;20596;-90
2022/04/14 02:30:36;;;;;;;23.55;17.80;;;11.90;99.90;;;;;;4977455;28;20636;-90
2022/04/14 02:33:02;;;;;;;25.75;16.88;;;11.80;99.90;;;;;;4977357;28;20465;-90
2022/04/14 02:35:28;;;;;;;22.15;18.08;;;11.80;99.90;;;;;;4993739;28;20038;-90
2022/04/14 02:37:56;;;;;;;25.80;18.75;;;11.70;99.90;;;;;;4993609;28;20104;-90
2022/04/14 02:40:23;;;;;;;23.92;18.40;;;11.70;99.90;;;;;;4977046;28;20052;-90
2022/04/14 02:42:53;;;;;;;22.75;16.58;;;11.60;99.90;;;;;;4977127;28;20121;-90
2022/04/14 02:45:20;;;;;;;23.42;18.35;;;11.50;99.90;;;;;;4977502;28;20407;-90
2022/04/14 02:47:45;;;;;;;23.60;17.52;;;11.50;99.90;;;;;;4993514;28;20050;-90
2022/04/14 02:50:11;;;;;;;26.25;16.85;;;11.40;99.90;;;;;;4976870;28;20478;-91
2022/04/14 02:52:37;;;;;;;24.73;17.50;;;11.40;99.90;;;;;;4993372;28;20474;-90
2022/04/14 02:55:03;;;;;;;33.85;14.70;;;11.30;99.90;;;;;;4993688;28;20089;-91
2022/04/14 02:57:30;;;;;;;44.90;14.88;;;11.30;99.90;;;;;;4993141;28;20542;-91
2022/04/14 02:59:56;;;;;;;79.72;14.38;;;11.20;99.90;;;;;;4992844;28;20387;-90
2022/04/14 03:02:22;;;;;;;23.40;14.60;;;11.20;99.90;;;;;;4993332;28;20050;-90
2022/04/14 03:04:47;;;;;;;21.30;14.23;;;11.20;99.90;;;;;;4993258;28;20038;-90
2022/04/14 03:07:13;;;;;;;82.18;13.55;;;11.10;99.90;;;;;;4976896;28;20049;-90
2022/04/14 03:09:38;;;;;;;50.45;15.77;;;11.10;99.90;;;;;;4993207;28;20038;-90
2022/04/14 03:12:04;;;;;;;33.42;12.55;;;11.10;99.90;;;;;;4976488;28;20102;-91
2022/04/14 03:14:30;;;;;;;38.15;13.57;;;11.10;99.90;;;;;;4993212;28;20117;-91
2022/04/14 03:16:57;;;;;;;57.03;13.80;;;11.00;99.90;;;;;;4976955;28;20043;-90
2022/04/14 03:19:22;;;;;;;78.47;13.75;;;11.00;99.90;;;;;;4976686;28;20034;-91
2022/04/14 03:21:48;;;;;;;78.47;13.57;;;11.00;99.90;;;;;;4976400;28;20498;-91
2022/04/14 03:24:13;;;;;;;99.80;13.68;;;11.00;99.90;;;;;;4992790;28;20034;-91
2022/04/14 03:26:39;;;;;;;48.20;13.50;;;10.90;99.90;;;;;;4976884;28;20447;-91
2022/04/14 03:29:05;;;;;;;25.58;13.75;;;10.90;99.90;;;;;;4976546;28;20045;-90
2022/04/14 03:31:30;;;;;;;68.80;14.07;;;10.90;99.90;;;;;;4992353;28;20052;-91
2022/04/14 03:33:56;;;;;;;109.57;12.90;;;10.90;99.90;;;;;;4992616;28;20491;-91
2022/04/14 03:36:21;;;;;;;127.03;15.10;;;10.90;99.90;;;;;;4976427;28;20140;-90
2022/04/14 03:38:47;;;;;;;28.85;13.10;;;10.80;99.90;;;;;;4992758;28;20149;-91
2022/04/14 03:41:13;;;;;;;55.13;16.23;;;10.80;99.90;;;;;;4975739;28;20104;-91
2022/04/14 03:43:38;;;;;;;49.30;15.55;;;10.80;99.90;;;;;;4992516;28;20034;-90
2022/04/14 03:46:04;;;;;;;109.93;20.30;;;10.80;99.90;;;;;;4992307;28;20030;-91
2022/04/14 03:48:30;;;;;;;62.53;17.27;;;10.80;99.90;;;;;;4992177;28;20038;-90
2022/04/14 03:50:55;;;;;;;50.88;16.55;;;10.80;99.90;;;;;;4992187;28;20073;-91
2022/04/14 03:53:21;;;;;;;52.03;18.75;;;10.80;99.90;;;;;;4992290;28;20045;-90
2022/04/14 03:55:47;;;;;;;60.17;20.38;;;10.70;99.90;;;;;;4976039;28;20042;-90
2022/04/14 03:58:17;;;;;;;153.05;23.60;;;10.70;99.90;;;;;;4992233;28;20037;-90
2022/04/14 04:00:43;;;;;;;31.15;16.63;;;10.70;99.90;;;;;;4991747;28;20042;-90
2022/04/14 04:03:09;;;;;;;39.25;19.75;;;10.70;99.90;;;;;;4992328;28;20046;-90
2022/04/14 04:05:35;;;;;;;26.85;18.70;;;10.70;99.90;;;;;;4975928;28;20039;-90
2022/04/14 04:08:01;;;;;;;28.80;20.05;;;10.70;99.90;;;;;;4991967;28;20189;-90
2022/04/14 04:10:27;;;;;;;29.27;20.55;;;10.70;99.90;;;;;;4975386;28;20045;-90
2022/04/14 04:12:52;;;;;;;34.22;23.15;;;10.70;99.90;;;;;;4992029;28;20116;-90
2022/04/14 04:15:18;;;;;;;27.77;20.30;;;10.70;99.90;;;;;;4992121;28;20050;-90
2022/04/14 04:17:45;;;;;;;33.15;21.70;;;10.70;99.90;;;;;;4991671;28;20493;-90
2022/04/14 04:20:11;;;;;;;28.67;20.15;;;10.60;99.90;;;;;;4991730;28;20439;-90
2022/04/14 04:22:36;;;;;;;33.85;21.95;;;10.70;99.90;;;;;;4991725;28;20565;-91
2022/04/14 04:25:03;;;;;;;28.05;21.10;;;10.60;99.90;;;;;;4991866;28;20069;-90
2022/04/14 04:27:29;;;;;;;33.95;22.60;;;10.60;99.90;;;;;;4991913;28;20545;-90
2022/04/14 04:29:55;;;;;;;32.55;22.30;;;10.60;99.90;;;;;;4991285;28;20077;-90
2022/04/14 04:32:21;;;;;;;119.45;22.17;;;10.60;99.90;;;;;;4991106;28;20095;-90
2022/04/14 04:34:46;;;;;;;72.65;19.10;;;10.60;99.90;;;;;;4991468;28;20081;-90
2022/04/14 04:37:12;;;;;;;194.98;20.20;;;10.50;99.90;;;;;;4991090;28;20045;-90
2022/04/14 04:39:37;;;;;;;279.95;24.67;;;10.50;99.90;;;;;;4991522;28;20532;-90
2022/04/14 04:42:03;;;;;;;144.88;17.17;;;10.40;99.90;;;;;;4990803;28;20039;-90
2022/04/14 04:44:29;;;;;;;61.80;16.02;;;10.30;99.90;;;;;;4991460;28;20039;-90
2022/04/14 04:46:54;;;;;;;100.82;14.98;;;10.30;99.90;;;;;;4991819;28;20081;-90
2022/04/14 04:49:20;;;;;;;61.15;15.20;;;10.20;99.90;;;;;;4991575;28;20125;-90
2022/04/14 04:51:45;;;;;;;118.18;17.42;;;10.20;99.90;;;;;;4991424;28;20042;-90
2022/04/14 04:54:11;;;;;;;297.85;25.58;;;10.10;99.90;;;;;;4991519;28;20483;-90
2022/04/14 04:56:36;;;;;;;83.68;17.23;;;10.10;99.90;;;;;;4991259;28;20591;-89
2022/04/14 04:59:02;;;;;;;102.28;16.20;;;10.10;99.90;;;;;;4991267;28;20048;-89
2022/04/14 05:01:28;;;;;;;39.65;14.25;;;10.00;99.90;;;;;;4974880;28;20049;-90
2022/04/14 05:03:54;;;;;;;151.55;18.88;;;10.00;99.90;;;;;;4991683;28;20117;-90
2022/04/14 05:06:20;;;;;;;65.65;12.15;;;10.00;99.90;;;;;;4991360;28;20042;-90
2022/04/14 05:08:46;;;;;;;85.07;18.60;;;10.00;99.90;;;;;;4991333;28;20053;-90
2022/04/14 05:11:15;;;;;;;73.88;20.23;;;10.00;99.90;;;;;;4990824;28;20048;-89
2022/04/14 05:13:41;;;;;;;42.83;19.10;;;10.00;99.90;;;;;;4991308;28;20101;-89
2022/04/14 05:16:07;;;;;;;105.45;20.90;;;10.00;99.90;;;;;;4974951;28;20046;-89
2022/04/14 05:18:36;;;;;;;38.75;17.95;;;10.10;99.90;;;;;;4991047;28;20042;-90
2022/04/14 05:21:01;;;;;;;25.58;16.15;;;10.10;99.90;;;;;;4976488;28;20049;-90
2022/04/14 05:23:27;;;;;;;51.90;18.00;;;10.10;99.90;;;;;;4999352;28;20046;-91
2022/04/14 05:25:54;;;;;;;75.38;20.52;;;10.10;99.90;;;;;;4976486;28;20045;-91
2022/04/14 05:28:20;;;;;;;133.38;22.25;;;10.10;99.90;;;;;;4992231;28;20122;-91
2022/04/14 05:30:45;;;;;;;152.00;25.50;;;10.10;99.90;;;;;;5007979;28;20034;-91
2022/04/14 05:33:12;;;;;;;85.90;21.65;;;10.10;99.90;;;;;;4975524;28;20147;-91
2022/04/14 05:35:38;;;;;;;86.90;24.15;;;10.10;99.90;;;;;;4991390;28;20042;-90
2022/04/14 05:38:05;;;;;;;34.08;19.73;;;10.10;99.90;;;;;;4974907;28;20043;-90
2022/04/14 05:40:31;;;;;;;51.58;21.25;;;10.10;99.90;;;;;;4974094;28;20042;-91
2022/04/14 05:42:57;;;;;;;41.65;22.42;;;10.10;99.90;;;;;;4974372;28;20042;-90
2022/04/14 05:45:22;;;;;;;25.08;19.38;;;10.10;99.90;;;;;;4990741;28;20041;-91
2022/04/14 05:47:48;;;;;;;30.88;22.30;;;10.10;99.90;;;;;;4979642;28;20082;-91
2022/04/14 05:50:14;;;;;;;31.00;21.98;;;10.10;99.90;;;;;;4987358;28;20120;-91
2022/04/14 05:52:40;;;;;;;34.83;23.90;;;10.20;99.90;;;;;;4998248;28;20641;-91
2022/04/14 05:55:05;;;;;;;34.53;25.35;;;10.20;99.90;;;;;;5014342;28;20049;-91
2022/04/14 05:57:31;;;;;;;33.65;22.25;;;10.20;99.90;;;;;;5014106;28;20429;-90
2022/04/14 05:59:57;;;;;;;33.92;23.60;;;10.30;99.90;;;;;;4997346;28;20077;-91
2022/04/14 06:02:23;;;;;;;35.60;25.30;;;10.30;99.90;;;;;;5014064;28;20121;-91
2022/04/14 06:04:49;;;;;;;28.73;22.27;;;10.30;99.90;;;;;;5014008;28;20121;-91
2022/04/14 06:07:15;;;;;;;33.15;23.40;;;10.30;99.90;;;;;;5014041;28;20034;-90
2022/04/14 06:09:40;;;;;;;33.78;25.00;;;10.30;99.90;;;;;;5014111;28;20042;-91
2022/04/14 06:12:07;;;;;;;28.83;21.13;;;10.30;99.90;;;;;;5013292;28;20042;-90
2022/04/14 06:14:33;;;;;;;29.00;19.33;;;10.30;99.90;;;;;;5013690;28;20038;-90
2022/04/14 06:16:59;;;;;;;26.58;20.35;;;10.30;99.90;;;;;;5013896;28;20048;-91
2022/04/14 06:19:25;;;;;;;25.50;19.67;;;10.30;99.90;;;;;;5008995;28;20406;-90
2022/04/14 06:21:50;;;;;;;31.02;22.75;;;10.40;99.90;;;;;;5001561;28;20046;-90
2022/04/14 06:24:16;;;;;;;30.88;23.02;;;10.50;99.90;;;;;;5004801;28;20033;-91
2022/04/14 06:26:42;;;;;;;33.65;23.13;;;10.50;99.90;;;;;;5013386;28;20124;-90
2022/04/14 06:29:07;;;;;;;34.35;24.88;;;10.60;99.90;;;;;;5013494;28;20037;-91
2022/04/14 06:31:33;;;;;;;37.92;25.17;;;10.60;99.90;;;;;;5013286;28;20052;-92
2022/04/14 06:33:59;;;;;;;38.53;29.00;;;10.70;99.90;;;;;;5013359;28;20180;-91
2022/04/14 06:36:24;;;;;;;36.75;27.98;;;10.70;99.90;;;;;;5013366;28;20065;-91
2022/04/14 06:38:50;;;;;;;36.65;28.63;;;10.80;99.90;;;;;;4996678;28;20411;-90
2022/04/14 06:41:15;;;;;;;40.35;29.02;;;10.90;99.90;;;;;;4996403;28;20122;-90
2022/04/14 06:43:41;;;;;;;43.53;29.95;;;11.00;99.90;;;;;;5013150;28;20676;-91
2022/04/14 06:46:06;;;;;;;40.75;29.50;;;11.00;99.90;;;;;;5013188;28;20037;-90
2022/04/14 06:48:32;;;;;;;42.40;30.17;;;11.10;99.90;;;;;;5012974;28;20034;-90
2022/04/14 06:51:01;;;;;;;41.55;30.98;;;11.20;99.90;;;;;;4996222;28;20446;-90
2022/04/14 06:53:27;;;;;;;44.20;30.05;;;11.20;99.90;;;;;;4996467;28;20038;-91
2022/04/14 06:55:53;;;;;;;42.30;31.13;;;11.30;99.90;;;;;;4996656;28;20034;-90
2022/04/14 06:58:20;;;;;;;45.40;33.08;;;11.40;99.90;;;;;;5011989;28;20138;-91
2022/04/14 07:00:46;;;;;;;44.63;32.78;;;11.50;99.90;;;;;;4996048;28;20092;-91
2022/04/14 07:03:12;;;;;;;43.85;32.58;;;11.60;99.90;;;;;;4984558;28;20038;-91
2022/04/14 07:05:37;;;;;;;43.45;32.22;;;11.60;99.90;;;;;;4993061;28;20038;-90
2022/04/14 07:08:03;;;;;;;43.13;31.90;;;11.70;99.90;;;;;;4977090;28;20049;-91
2022/04/14 07:10:28;;;;;;;44.97;32.95;;;11.80;99.90;;;;;;5010971;28;20042;-90
2022/04/14 07:12:55;;;;;;;44.70;31.13;;;11.80;99.90;;;;;;4995916;28;20558;-91
2022/04/14 07:15:21;;;;;;;44.60;34.10;;;11.90;99.90;;;;;;5012491;28;20037;-90
2022/04/14 07:17:47;;;;;;;43.78;31.63;;;12.00;99.90;;;;;;4996098;28;20038;-91
2022/04/14 07:20:13;;;;;;;42.83;30.77;;;12.10;99.90;;;;;;5012006;28;20053;-91
2022/04/14 07:22:49;;;;;;;43.22;30.77;;;12.20;99.90;;;;;;5012296;28;20523;-91
2022/04/14 07:25:15;;;;;;;40.50;31.77;;;12.30;99.90;;;;;;5012243;28;20034;-91
2022/04/14 07:27:41;;;;;;;43.38;32.20;;;12.40;99.90;;;;;;4995327;28;20042;-89
2022/04/14 07:30:08;;;;;;;42.17;32.30;;;12.40;99.90;;;;;;4990538;28;20053;-91
2022/04/14 07:32:39;;;;;;;38.30;28.45;;;12.50;99.90;;;;;;4976294;28;20408;-91
2022/04/14 07:35:06;;;;;;;42.03;30.52;;;12.60;99.90;;;;;;4976192;28;20053;-90
2022/04/14 07:37:32;;;;;;;37.47;30.15;;;12.70;99.90;;;;;;4975670;28;20044;-91
2022/04/14 07:39:58;;;;;;;36.00;26.80;;;12.80;99.90;;;;;;4992029;28;20046;-91
2022/04/14 07:42:35;;;;;;;38.72;28.83;;;12.80;99.90;;;;;;4975915;28;20045;-91
2022/04/14 07:45:02;;;;;;;36.25;27.52;;;12.90;99.90;;;;;;4975469;28;20045;-90
2022/04/14 07:47:28;;;;;;;39.67;27.10;;;12.90;99.90;;;;;;4976084;28;20054;-91
2022/04/14 07:49:53;;;;;;;36.38;28.05;;;13.00;99.90;;;;;;4991809;28;20038;-91
2022/04/14 07:52:19;;;;;;;38.05;27.27;;;13.10;99.90;;;;;;4975694;28;20495;-91
2022/04/14 07:54:44;;;;;;;36.35;27.33;;;13.20;99.90;;;;;;4976098;28;20050;-91
2022/04/14 07:57:10;;;;;;;35.00;27.73;;;13.30;99.90;;;;;;4975429;28;20407;-91
2022/04/14 07:59:36;;;;;;;33.00;27.05;;;13.30;99.90;;;;;;4991665;28;20070;-90
2022/04/14 08:02:02;;;;;;;34.17;26.67;;;13.40;99.90;;;;;;4991570;28;20112;-91
2022/04/14 08:04:27;;;;;;;33.35;25.80;;;13.50;99.90;;;;;;4975480;28;20038;-90
2022/04/14 08:06:53;;;;;;;31.27;23.13;;;13.60;99.90;;;;;;4991717;28;20038;-90
2022/04/14 08:09:20;;;;;;;36.03;26.10;;;13.60;99.90;;;;;;4975466;28;20078;-90
2022/04/14 08:11:46;;;;;;;35.65;26.17;;;13.70;99.90;;;;;;4991293;28;20050;-90
2022/04/14 08:14:12;;;;;;;27.70;23.15;;;13.80;99.90;;;;;;4975214;28;20515;-90
2022/04/14 08:16:37;;;;;;;31.30;23.65;;;13.90;99.90;;;;;;4991275;28;20081;-90
2022/04/14 08:19:03;;;;;;;29.17;21.95;;;14.00;99.90;;;;;;4991135;28;20027;-90
2022/04/14 08:21:29;;;;;;;30.15;22.52;;;14.00;99.90;;;;;;4991289;28;20451;-91
2022/04/14 08:23:55;;;;;;;24.33;20.42;;;14.10;99.90;;;;;;4975256;28;20038;-91
2022/04/14 08:26:21;;;;;;;23.98;18.85;;;14.10;99.90;;;;;;4991420;28;20038;-90
2022/04/14 08:28:47;;;;;;;27.00;17.85;;;14.10;99.90;;;;;;4974653;28;20546;-89
2022/04/14 08:31:14;;;;;;;26.85;20.45;;;14.20;99.90;;;;;;4990171;28;20049;-91
2022/04/14 08:33:40;;;;;;;23.02;19.33;;;14.30;99.90;;;;;;4990951;28;20049;-91
2022/04/14 08:36:12;;;;;;;22.95;17.15;;;14.30;99.90;;;;;;4991363;28;20047;-91
2022/04/14 08:38:41;;;;;;;20.92;15.98;;;14.40;99.90;;;;;;4991092;28;20050;-91
2022/04/14 08:41:08;;;;;;;21.92;16.35;;;14.50;99.90;;;;;;4990407;28;20042;-91
2022/04/14 08:43:35;;;;;;;22.48;16.27;;;14.50;99.90;;;;;;4990940;28;20074;-91
2022/04/14 08:46:03;;;;;;;21.45;16.15;;;14.60;99.90;;;;;;4991145;28;20034;-91
2022/04/14 08:48:29;;;;;;;20.05;16.30;;;14.70;99.90;;;;;;4990835;28;20084;-91
2022/04/14 08:50:56;;;;;;;17.98;13.48;;;14.80;99.90;;;;;;4974013;28;20042;-91
2022/04/14 08:53:26;;;;;;;18.98;14.65;;;14.90;99.90;;;;;;4990814;28;20046;-91
2022/04/14 08:55:52;;;;;;;18.33;14.90;;;15.00;99.90;;;;;;4990503;28;20050;-91
2022/04/14 08:58:26;;;;;;;18.13;13.95;;;15.10;99.90;;;;;;4973293;28;20466;-91
2022/04/14 09:00:54;;;;;;;18.83;14.15;;;15.10;99.90;;;;;;4989020;28;20114;-91
2022/04/14 09:03:20;;;;;;;18.17;15.13;;;15.20;99.90;;;;;;4990957;28;20551;-91
2022/04/14 09:05:46;;;;;;;15.88;13.95;;;15.30;99.90;;;;;;4990827;28;20038;-91
2022/04/14 09:08:11;;;;;;;19.90;16.30;;;15.40;99.90;;;;;;4990444;28;20045;-91
2022/04/14 09:10:38;;;;;;;18.25;15.27;;;15.50;99.90;;;;;;4974048;28;20046;-91
2022/04/14 09:13:04;;;;;;;17.65;14.95;;;15.60;99.90;;;;;;4990668;28;20053;-91
2022/04/14 09:15:30;;;;;;;16.88;14.30;;;15.70;99.90;;;;;;4997526;28;20038;-91
2022/04/14 09:17:55;;;;;;;15.32;12.57;;;15.80;99.90;;;;;;4991375;28;20039;-91
2022/04/14 09:20:38;;;;;;;15.05;13.43;;;15.80;99.90;;;;;;4974293;28;20625;-91
2022/04/14 09:23:15;;;;;;;16.42;13.30;;;15.90;99.90;;;;;;4993327;28;20034;-92
2022/04/14 09:25:42;;;;;;;15.90;14.13;;;16.00;99.90;;;;;;4994872;28;20574;-91
2022/04/14 09:28:17;;;;;;;17.30;14.05;;;16.10;99.90;;;;;;4996935;28;20076;-91
2022/04/14 09:31:03;;;;;;;17.58;14.68;;;16.20;99.90;;;;;;4996247;28;20038;-91
2022/04/14 09:33:30;;;;;;;19.90;17.88;;;16.30;99.90;;;;;;5013754;28;20045;-91
2022/04/14 09:36:16;;;;;;;16.48;14.20;;;16.40;99.90;;;;;;4997969;28;20107;-91
2022/04/14 09:38:49;;;;;;;15.35;13.60;;;16.50;99.90;;;;;;5013882;28;20049;-91
2022/04/14 09:41:40;;;;;;;14.85;13.05;;;16.60;99.90;;;;;;4997259;28;20056;-91
2022/04/14 09:44:11;;;;;;;16.67;14.88;;;16.60;99.90;;;;;;5013945;28;20088;-91
2022/04/14 09:46:38;;;;;;;17.02;15.18;;;16.60;99.90;;;;;;4997619;28;20034;-91
2022/04/14 09:49:09;;;;;;;17.00;14.23;;;16.70;99.90;;;;;;4997563;28;20038;-90
2022/04/14 09:51:46;;;;;;;15.73;13.18;;;16.70;99.90;;;;;;5012985;28;20065;-91
2022/04/14 09:54:17;;;;;;;17.10;14.35;;;16.80;99.90;;;;;;5013577;28;20522;-92
2022/04/14 09:56:52;;;;;;;19.00;14.30;;;16.90;99.90;;;;;;5013958;28;20100;-91
2022/04/14 09:59:20;;;;;;;15.90;13.18;;;17.10;99.90;;;;;;5013420;28;20046;-91
2022/04/14 10:01:46;;;;;;;17.30;15.52;;;17.20;99.90;;;;;;4997128;28;20037;-91
2022/04/14 10:04:32;;;;;;;16.55;14.70;;;17.30;99.90;;;;;;5013574;28;20046;-91
2022/04/14 10:07:11;;;;;;;17.33;13.98;;;17.30;99.90;;;;;;4997381;28;20446;-92
2022/04/14 10:09:41;;;;;;;16.10;13.80;;;17.30;99.90;;;;;;5013210;28;20045;-92
2022/04/14 10:12:19;;;;;;;16.70;13.50;;;17.40;99.90;;;;;;5012929;28;20053;-92
2022/04/14 10:15:20;;;;;;;16.90;12.57;;;17.50;99.90;;;;;;4996707;28;20049;-90
2022/04/14 10:17:44;;;;;;;13.95;11.82;;;17.60;99.90;;;;;;5012809;28;20049;-90
2022/04/14 10:20:10;;;;;;;16.02;12.77;;;17.70;99.90;;;;;;5012811;28;20507;-90
2022/04/14 10:22:37;;;;;;;15.18;13.57;;;17.60;97.90;;;;;;5009738;28;20036;-91
2022/04/14 10:25:04;;;;;;;16.88;14.13;;;17.60;99.40;;;;;;4994073;28;20492;-91
2022/04/14 10:27:32;;;;;;;15.82;12.98;;;17.80;99.90;;;;;;5010307;28;20153;-91
2022/04/14 10:29:59;;;;;;;15.30;13.10;;;17.90;99.30;;;;;;4993328;28;20073;-91
2022/04/14 10:32:25;;;;;;;15.73;12.73;;;17.90;98.20;;;;;;4998326;28;20096;-90
2022/04/14 10:34:51;;;;;;;16.25;12.77;;;18.10;98.00;;;;;;4991797;28;20113;-91
2022/04/14 10:37:23;;;;;;;14.35;11.77;;;18.20;97.10;;;;;;4993251;28;20043;-91
2022/04/14 10:39:49;;;;;;;14.63;12.57;;;18.20;97.80;;;;;;4993094;28;20042;-91
2022/04/14 10:42:27;;;;;;;16.70;13.00;;;18.40;96.60;;;;;;4993095;28;20034;-91
2022/04/14 10:44:54;;;;;;;15.00;11.90;;;18.40;95.20;;;;;;4993607;28;20762;-91
2022/04/14 10:47:58;;;;;;;15.82;11.75;;;18.30;93.10;;;;;;4992864;28;20491;-91
2022/04/14 10:50:34;;;;;;;14.93;12.13;;;18.40;97.90;;;;;;4992129;28;20038;-91
2022/04/14 10:53:01;;;;;;;16.70;13.32;;;18.40;95.90;;;;;;4991954;28;20499;-91
2022/04/14 10:55:47;;;;;;;16.95;13.35;;;18.50;95.00;;;;;;4993722;28;20046;-91
2022/04/14 10:58:38;;;;;;;16.98;13.02;;;18.60;95.20;;;;;;4993339;28;20426;-91
2022/04/14 11:01:04;;;;;;;14.00;11.85;;;18.50;95.40;;;;;;4993079;28;20042;-91
2022/04/14 11:03:47;;;;;;;19.05;11.35;;;18.60;96.30;;;;;;4993208;28;20475;-91
2022/04/14 11:06:39;;;;;;;14.80;11.88;;;18.60;92.80;;;;;;4993274;28;20042;-91
2022/04/14 11:09:06;;;;;;;19.33;15.70;;;18.70;96.20;;;;;;4985260;28;20056;-91
2022/04/14 11:12:01;;;;;;;16.27;13.10;;;18.90;97.30;;;;;;4976173;28;20038;-91
2022/04/14 11:14:27;;;;;;;16.25;12.43;;;19.10;95.30;;;;;;4993299;28;20042;-91
2022/04/14 11:16:52;;;;;;;13.85;9.77;;;19.20;95.80;;;;;;4977100;28;20038;-91
2022/04/14 11:19:21;;;;;;;12.48;9.07;;;19.30;92.20;;;;;;4976727;28;20121;-91
2022/04/14 11:22:02;;;;;;;11.30;8.15;;;19.10;90.80;;;;;;4976414;28;20035;-91
2022/04/14 11:24:36;;;;;;;11.75;7.95;;;19.00;91.10;;;;;;4976747;28;20096;-91
2022/04/14 11:27:16;;;;;;;12.55;8.27;;;18.90;90.30;;;;;;4976586;28;20133;-91
2022/04/14 11:29:48;;;;;;;12.90;8.85;;;19.10;92.40;;;;;;4992411;28;20042;-91
2022/04/14 11:32:33;;;;;;;11.87;8.17;;;19.10;89.90;;;;;;4992832;28;20372;-91
2022/04/14 11:35:16;;;;;;;12.30;7.68;;;19.10;88.50;;;;;;4976768;28;20372;-91
2022/04/14 11:37:44;;;;;;;10.60;5.85;;;19.20;88.20;;;;;;4976837;28;20069;-92
2022/04/14 11:40:18;;;;;;;10.25;5.43;;;19.30;87.00;;;;;;4976429;28;20216;-92
2022/04/14 11:42:54;;;;;;;8.77;5.30;;;19.30;88.30;;;;;;5015392;28;20049;-92
2022/04/14 11:45:24;;;;;;;10.70;5.35;;;19.40;89.00;;;;;;5017157;28;20106;-91
2022/04/14 11:48:00;;;;;;;11.35;5.38;;;19.80;86.60;;;;;;5009998;28;20057;-91
2022/04/14 11:50:32;;;;;;;8.80;4.80;;;19.90;81.20;;;;;;4989057;28;20046;-92
2022/04/14 11:53:00;;;;;;;9.57;5.10;;;19.90;80.50;;;;;;5002659;28;20054;-92
2022/04/14 11:55:40;;;;;;;10.32;5.63;;;20.00;80.60;;;;;;4977209;28;20049;-91
2022/04/14 11:58:07;;;;;;;10.50;5.15;;;20.30;83.60;;;;;;4992457;28;20518;-91
2022/04/14 12:00:50;;;;;;;10.52;5.05;;;20.50;83.00;;;;;;4992158;28;20035;-91
2022/04/14 12:03:28;;;;;;;9.57;4.82;;;20.70;76.50;;;;;;4992529;28;20038;-91
2022/04/14 12:05:55;;;;;;;10.13;4.50;;;20.60;74.70;;;;;;4992128;28;20038;-91
2022/04/14 12:08:21;;;;;;;8.30;3.90;;;20.50;74.60;;;;;;4991754;28;20043;-91
2022/04/14 12:10:46;;;;;;;9.25;4.88;;;20.50;75.40;;;;;;4991200;28;20054;-91
2022/04/14 12:13:13;;;;;;;10.38;5.32;;;20.40;72.30;;;;;;4975557;28;20043;-91
2022/04/14 12:15:39;;;;;;;9.13;4.75;;;20.40;74.40;;;;;;4991832;28;20086;-91
2022/04/14 12:18:10;;;;;;;9.25;4.75;;;20.40;72.30;;;;;;4991613;28;20070;-91
2022/04/14 12:20:41;;;;;;;8.90;4.78;;;20.50;80.00;;;;;;4991529;28;20034;-92
2022/04/14 12:23:13;;;;;;;10.18;4.80;;;20.90;77.10;;;;;;4975397;28;20046;-91
2022/04/14 12:25:39;;;;;;;9.20;5.00;;;21.00;75.00;;;;;;4988128;28;20035;-92
2022/04/14 12:28:06;;;;;;;8.38;4.10;;;21.10;73.20;;;;;;4993964;28;20042;-92
2022/04/14 12:30:32;;;;;;;7.50;3.03;;;20.90;71.70;;;;;;4983918;28;20045;-92
2022/04/14 12:33:03;;;;;;;8.05;3.47;;;21.10;71.90;;;;;;5009388;28;20084;-92